Time;durP1;ratioP1;P1;durP2;ratioP2;P2;SDS_P1;SDS_P2;PMS_P1;PMS_P2;Temp;Humidity;BMP_temperature;BMP_pressure;BME280_temperature;BME280_humidity;BME280_pressure;Samples;Min_cycle;Max_cycle;Signal;HPM_P1;HPM_P2
2023/11/29 00:05:43;;;;;;;88.50;41.10;;;;;;;-4.52;93.30;97360.57;436508;1247;107376;-38
2023/11/29 00:15:52;;;;;;;75.70;38.90;;;;;;;-4.52;93.41;97375.21;436455;1251;97588;-39
2023/11/29 00:36:07;;;;;;;95.00;43.70;;;;;;;-4.57;93.74;97392.41;436282;1248;107669;-38
2023/11/29 00:46:14;;;;;;;84.40;37.00;;;;;;;-4.66;93.68;97401.20;435994;1248;491539;-39
2023/11/29 00:56:21;;;;;;;74.10;37.20;;;;;;;-4.59;93.44;97409.60;436452;1248;110593;-38
2023/11/29 01:06:28;;;;;;;74.80;36.10;;;;;;;-4.61;93.43;97412.96;436493;1254;109200;-39
2023/11/29 01:16:34;;;;;;;76.70;36.40;;;;;;;-4.62;93.35;97413.75;436441;1248;97471;-38
2023/11/29 01:26:40;;;;;;;101.30;43.80;;;;;;;-4.69;93.55;97421.68;436529;1253;107872;-38
2023/11/29 01:36:48;;;;;;;112.10;44.40;;;;;;;-4.80;93.49;97431.09;436458;1253;96640;-40
2023/11/29 01:46:56;;;;;;;78.30;36.30;;;;;;;-4.80;93.52;97442.48;436336;1253;97909;-41
2023/11/29 01:57:03;;;;;;;67.60;33.30;;;;;;;-4.76;93.39;97439.28;436400;1248;107595;-38
2023/11/29 02:07:10;;;;;;;74.10;33.20;;;;;;;-4.68;93.53;97431.71;436197;1254;97877;-39
2023/11/29 02:27:26;;;;;;;106.90;43.20;;;;;;;-4.83;93.55;97437.96;436494;1249;107875;-40
2023/11/29 02:37:34;;;;;;;87.50;39.40;;;;;;;-4.78;93.37;97447.38;436411;1252;97993;-39
2023/11/29 02:47:42;;;;;;;82.50;37.70;;;;;;;-4.69;93.27;97452.52;436185;1252;109368;-40
2023/11/29 02:57:49;;;;;;;74.90;32.50;;;;;;;-4.73;93.24;97457.86;436270;1253;106719;-38
2023/11/29 03:07:56;;;;;;;94.40;37.90;;;;;;;-4.77;93.44;97475.52;436406;1247;97970;-39
2023/11/29 03:18:03;;;;;;;95.90;41.60;;;;;;;-4.84;93.45;97483.83;436372;1253;110703;-39
2023/11/29 03:28:11;;;;;;;74.90;35.00;;;;;;;-4.90;93.39;97481.03;436282;1248;107767;-39
2023/11/29 03:38:16;;;;;;;72.30;34.30;;;;;;;-4.76;93.49;97485.05;436253;1248;97102;-38
2023/11/29 03:48:23;;;;;;;69.50;32.50;;;;;;;-4.75;93.59;97494.20;436226;1248;110380;-40
2023/11/29 03:58:30;;;;;;;107.00;43.50;;;;;;;-4.81;93.48;97509.80;436387;1248;118875;-39
2023/11/29 04:08:38;;;;;;;111.20;43.50;;;;;;;-4.92;93.61;97519.42;436376;1252;97976;-39
2023/11/29 04:18:45;;;;;;;88.10;38.60;;;;;;;-4.96;93.51;97526.49;436337;1248;110365;-39
2023/11/29 04:28:51;;;;;;;81.50;34.10;;;;;;;-4.98;93.61;97529.13;436296;1253;107347;-40
2023/11/29 04:38:59;;;;;;;91.80;42.70;;;;;;;-4.96;93.55;97543.65;436327;1248;97880;-40
2023/11/29 04:49:06;;;;;;;106.10;42.50;;;;;;;-4.90;93.81;97541.65;436343;1248;107309;-40
2023/11/29 04:59:13;;;;;;;135.30;53.20;;;;;;;-4.91;93.72;97538.72;436326;1253;96625;-39
2023/11/29 05:09:21;;;;;;;89.20;35.90;;;;;;;-4.91;93.95;97548.16;436442;1250;97495;-40
2023/11/29 05:19:28;;;;;;;71.00;30.50;;;;;;;-4.89;93.74;97547.39;436254;1254;110388;-39
2023/11/29 05:29:36;;;;;;;72.80;31.50;;;;;;;-4.77;93.65;97554.07;436187;1253;107080;-43
2023/11/29 05:39:43;;;;;;;81.30;33.20;;;;;;;-4.60;93.82;97561.11;436474;1248;97894;-41
2023/11/29 05:49:50;;;;;;;82.10;32.70;;;;;;;-4.55;93.75;97574.14;436439;1253;109368;-40
2023/11/29 05:59:58;;;;;;;134.60;44.80;;;;;;;-4.60;93.82;97578.11;436422;1250;97499;-39
2023/11/29 06:10:07;;;;;;;83.70;34.10;;;;;;;-4.68;93.70;97587.52;436688;1251;97396;-39
2023/11/29 06:20:18;;;;;;;83.40;34.10;;;;;;;-4.66;93.84;97590.62;436445;1253;109017;-40
2023/11/29 06:30:26;;;;;;;70.90;29.20;;;;;;;-4.59;93.69;97584.84;436549;1253;106472;-39
2023/11/29 06:50:42;;;;;;;59.60;25.90;;;;;;;-4.22;93.80;97606.07;436370;1253;110715;-39
2023/11/29 07:00:49;;;;;;;72.30;31.20;;;;;;;-4.12;93.93;97612.03;436422;1251;107898;-39
2023/11/29 07:21:03;;;;;;;51.40;21.10;;;;;;;-4.11;93.65;97631.30;436589;1248;109781;-40
2023/11/29 07:31:09;;;;;;;58.00;24.60;;;;;;;-4.04;93.76;97634.46;436328;1253;108460;-39
2023/11/29 07:41:17;;;;;;;54.70;22.50;;;;;;;-3.95;93.81;97649.67;436485;1250;97874;-39
2023/11/29 07:51:24;;;;;;;52.70;27.70;;;;;;;-3.77;93.46;97656.37;436470;1251;110132;-39
2023/11/29 08:01:32;;;;;;;36.20;20.30;;;;;;;-3.66;93.08;97659.84;436156;1250;108325;-43
2023/11/29 08:21:45;;;;;;;40.00;17.40;;;;;;;-3.47;93.21;97654.91;436394;1253;109818;-39
2023/11/29 08:31:53;;;;;;;48.20;21.40;;;;;;;-3.53;93.04;97654.47;436336;1253;109576;-39
2023/11/29 08:42:00;;;;;;;39.40;18.90;;;;;;;-3.56;93.16;97658.94;436206;1251;97867;-39
2023/11/29 09:02:14;;;;;;;35.50;16.70;;;;;;;-3.29;92.78;97663.94;436451;1251;107158;-39
2023/11/29 09:42:39;;;;;;;40.60;19.80;;;;;;;-3.21;92.49;97674.83;436453;1250;96648;-40
2023/11/29 09:52:46;;;;;;;39.80;18.90;;;;;;;-3.16;92.77;97667.39;436431;1252;110834;-39
2023/11/29 10:02:54;;;;;;;43.00;19.10;;;;;;;-3.09;92.67;97669.52;436516;1253;107568;-40
2023/11/29 10:13:02;;;;;;;42.80;20.90;;;;;;;-3.11;92.78;97664.20;436381;1253;97868;-40
2023/11/29 10:23:12;;;;;;;22.80;11.60;;;;;;;-2.95;92.26;97669.94;436284;1251;97811;-39
2023/11/29 10:33:19;;;;;;;21.80;11.20;;;;;;;-2.87;92.10;97661.39;436370;1253;108587;-38
2023/11/29 10:43:29;;;;;;;39.80;17.80;;;;;;;-2.66;92.38;97664.39;436348;1252;98020;-38
2023/11/29 10:53:37;;;;;;;41.00;19.90;;;;;;;-2.81;92.06;97659.61;436318;1253;97892;-40
2023/11/29 11:03:46;;;;;;;37.70;17.10;;;;;;;-2.97;91.74;97650.88;436339;1253;109934;-39
2023/11/29 11:24:03;;;;;;;46.70;21.20;;;;;;;-2.66;91.67;97642.42;436568;1251;97476;-39
2023/11/29 11:34:13;;;;;;;53.00;23.70;;;;;;;-2.90;91.31;97635.50;436484;1253;97787;-39
2023/11/29 11:44:22;;;;;;;35.80;17.40;;;;;;;-2.78;91.51;97634.23;436332;1253;110728;-38
2023/11/29 11:54:29;;;;;;;30.60;14.60;;;;;;;-2.63;91.18;97638.29;436440;1250;108391;-39
2023/11/29 12:04:37;;;;;;;48.70;20.20;;;;;;;-2.81;90.79;97635.11;436309;1253;97467;-39
2023/11/29 12:14:45;;;;;;;53.20;23.90;;;;;;;-2.91;90.84;97634.05;436355;1254;110510;-38
2023/11/29 12:24:53;;;;;;;32.30;15.40;;;;;;;-2.95;90.47;97627.84;436366;1252;107824;-39
2023/11/29 12:35:00;;;;;;;49.30;22.40;;;;;;;-2.85;90.28;97613.95;436441;1254;97859;-39
2023/11/29 12:45:09;;;;;;;59.40;25.00;;;;;;;-3.01;90.03;97607.27;435983;1254;436440;-41
2023/11/29 12:55:13;;;;;;;68.20;30.40;;;;;;;-3.29;89.86;97604.48;436424;1251;108814;-40
2023/11/29 13:05:20;;;;;;;70.20;31.20;;;;;;;-3.33;89.99;97602.88;436463;1251;98061;-40
2023/11/29 13:25:51;;;;;;;44.20;20.80;;;;;;;-3.13;89.60;97601.94;436466;1251;107690;-39
2023/11/29 13:35:58;;;;;;;68.10;27.40;;;;;;;-3.24;89.69;97601.08;436223;1253;96622;-39
2023/11/29 13:46:04;;;;;;;70.70;31.10;;;;;;;-3.39;89.88;97610.42;436368;1254;110465;-40
2023/11/29 13:56:11;;;;;;;81.30;32.00;;;;;;;-3.54;89.83;97616.83;436340;1253;107206;-39
2023/11/29 14:06:21;;;;;;;68.20;28.00;;;;;;;-3.66;89.47;97620.73;436444;1248;97867;-40
2023/11/29 14:16:28;;;;;;;55.80;27.50;;;;;;;-3.76;89.49;97630.44;436316;1254;110984;-40
2023/11/29 14:26:36;;;;;;;116.30;43.90;;;;;;;-3.89;89.28;97641.65;436362;1254;120592;-38
2023/11/29 14:56:56;;;;;;;106.50;52.70;;;;;;;-4.70;89.28;97636.04;436250;1257;107025;-39
2023/11/29 15:17:05;;;;;;;115.00;56.50;;;;;;;-4.98;89.12;97636.17;436457;1248;107925;-40
2023/11/29 15:27:12;;;;;;;113.10;51.70;;;;;;;-5.19;89.19;97643.96;436337;1253;97906;-39
2023/11/29 15:47:24;;;;;;;108.60;56.70;;;;;;;-5.53;89.33;97640.05;436309;1261;98317;-40
2023/11/29 15:57:31;;;;;;;106.50;55.20;;;;;;;-5.57;89.40;97637.48;436217;1249;108384;-39
2023/11/29 16:07:40;;;;;;;107.00;54.80;;;;;;;-5.61;89.41;97631.48;436194;1248;97953;-39
2023/11/29 16:17:46;;;;;;;158.00;72.30;;;;;;;-5.70;89.33;97628.30;436279;1247;108171;-39
2023/11/29 16:27:53;;;;;;;167.20;76.90;;;;;;;-5.90;89.50;97625.30;436221;1248;96657;-40
2023/11/29 16:38:00;;;;;;;135.40;66.60;;;;;;;-6.11;89.49;97641.48;436271;1248;98019;-40
2023/11/29 16:48:06;;;;;;;147.60;76.50;;;;;;;-6.20;89.12;97641.67;436356;1254;109376;-39
2023/11/29 16:58:14;;;;;;;137.00;69.60;;;;;;;-6.27;89.20;97630.27;435912;1261;107584;-40
2023/11/29 17:08:21;;;;;;;140.00;67.80;;;;;;;-6.22;89.54;97637.77;436226;1254;97890;-39
2023/11/29 17:18:28;;;;;;;115.20;55.80;;;;;;;-6.17;89.52;97625.28;436183;1248;108935;-39
2023/11/29 17:28:35;;;;;;;121.30;56.70;;;;;;;-6.13;89.57;97624.22;436304;1248;97846;-38
2023/11/29 17:38:43;;;;;;;97.30;47.60;;;;;;;-6.08;89.53;97622.70;436146;1248;109506;-39
2023/11/29 17:48:50;;;;;;;111.00;55.60;;;;;;;-6.10;89.35;97622.73;436207;1247;108486;-40
2023/11/29 17:58:57;;;;;;;101.20;51.90;;;;;;;-6.06;89.71;97622.78;436094;1252;97916;-38
2023/11/29 18:09:05;;;;;;;107.10;50.20;;;;;;;-5.77;89.99;97606.55;436155;1253;107291;-39
2023/11/29 18:19:11;;;;;;;81.00;38.40;;;;;;;-5.69;89.89;97589.38;436294;1253;97258;-39
2023/11/29 18:29:19;;;;;;;92.10;42.60;;;;;;;-5.67;89.97;97584.59;436286;1248;110816;-39
2023/11/29 18:39:27;;;;;;;107.60;50.40;;;;;;;-5.73;89.83;97583.29;436270;1254;108372;-40
2023/11/29 18:49:34;;;;;;;123.30;55.70;;;;;;;-5.85;89.65;97572.80;436405;1248;97871;-40
2023/11/29 18:59:42;;;;;;;148.70;65.10;;;;;;;-5.94;89.69;97569.13;436257;1248;108450;-39
2023/11/29 19:09:49;;;;;;;120.90;53.30;;;;;;;-6.03;89.67;97567.98;436374;1248;97989;-40
2023/11/29 19:19:56;;;;;;;142.00;61.40;;;;;;;-6.09;89.66;97565.02;436271;1248;109440;-39
2023/11/29 19:40:11;;;;;;;144.60;64.90;;;;;;;-6.19;89.80;97560.27;436380;1254;96693;-39
2023/11/29 19:50:18;;;;;;;124.80;54.40;;;;;;;-6.22;89.94;97557.43;436254;1252;106610;-39
2023/11/29 20:20:36;;;;;;;77.80;36.70;;;;;;;-5.78;90.71;97571.26;436217;1253;107220;-40
2023/11/29 20:31:04;;;;;;;51.50;25.50;;;;;;;-5.34;91.06;97578.80;436073;1254;97956;-39
2023/11/29 20:41:12;;;;;;;44.30;21.80;;;;;;;-4.86;91.06;97565.88;436080;1254;107058;-40
2023/11/29 20:51:20;;;;;;;43.40;24.00;;;;;;;-4.54;91.09;97553.35;436268;1252;97923;-39
2023/11/29 21:01:25;;;;;;;46.10;22.70;;;;;;;-4.32;90.97;97560.44;436339;1254;112073;-40
2023/11/29 21:11:32;;;;;;;42.30;21.80;;;;;;;-4.21;90.78;97558.39;436215;1253;108295;-40
2023/11/29 21:21:39;;;;;;;57.50;23.70;;;;;;;-4.11;91.16;97551.42;436186;1253;97865;-40
2023/11/29 21:41:52;;;;;;;40.40;21.80;;;;;;;-3.84;91.39;97557.96;436189;1253;97982;-40
2023/11/29 21:51:59;;;;;;;37.10;18.90;;;;;;;-3.70;91.37;97556.09;436359;1248;109600;-40
2023/11/29 22:02:04;;;;;;;32.70;16.70;;;;;;;-3.59;91.32;97550.11;436123;1252;107464;-39
2023/11/29 22:12:11;;;;;;;30.00;16.50;;;;;;;-3.53;91.38;97536.47;436208;1247;96616;-39
2023/11/29 22:32:22;;;;;;;25.90;13.90;;;;;;;-3.28;91.15;97523.41;436254;1247;96700;-40
2023/11/29 22:42:29;;;;;;;30.20;15.80;;;;;;;-3.12;91.28;97532.77;436214;1253;111401;-40
2023/11/29 22:52:36;;;;;;;29.30;15.10;;;;;;;-2.98;91.07;97541.44;436218;1248;108239;-39
2023/11/29 23:02:43;;;;;;;25.00;15.00;;;;;;;-2.88;90.95;97538.27;436176;1248;97463;-40
2023/11/29 23:12:50;;;;;;;26.70;13.50;;;;;;;-2.85;90.89;97524.56;436181;1252;108313;-38
2023/11/29 23:22:57;;;;;;;28.40;15.10;;;;;;;-2.88;90.76;97516.70;436284;1248;97855;-40
2023/11/29 23:33:04;;;;;;;27.40;14.00;;;;;;;-2.97;90.92;97514.58;436172;1250;109427;-39
2023/11/29 23:43:10;;;;;;;28.40;15.00;;;;;;;-3.02;91.05;97515.32;436243;1248;107662;-39
2023/11/29 23:53:17;;;;;;;28.20;16.10;;;;;;;-2.98;91.03;97512.27;436295;1248;97880;-40
